createdAt,value
2022-10-05T00:03:22.500Z,15.33
2022-10-05T00:08:43.402Z,15.34
2022-10-05T00:14:15.201Z,15.35
2022-10-05T00:19:39.626Z,15.39
2022-10-05T00:25:02.624Z,15.42
2022-10-05T00:30:26.298Z,15.34
2022-10-05T00:35:47.002Z,15.38
2022-10-05T00:41:22.971Z,15.36
2022-10-05T00:46:55.579Z,15.35
2022-10-05T00:52:38.002Z,15.37
2022-10-05T00:58:07.930Z,15.40
2022-10-05T01:03:54.660Z,15.35
2022-10-05T01:09:44.494Z,15.32
2022-10-05T01:15:27.596Z,15.41
2022-10-05T01:21:11.063Z,15.36
2022-10-05T01:26:53.884Z,15.39
2022-10-05T01:32:32.284Z,15.34
2022-10-05T01:38:01.285Z,15.30
2022-10-05T01:43:44.314Z,15.27
2022-10-05T01:49:23.902Z,15.23
2022-10-05T01:55:01.385Z,15.19
2022-10-05T02:00:21.844Z,15.14
2022-10-05T02:06:01.539Z,15.15
2022-10-05T02:11:23.855Z,15.12
2022-10-05T02:16:48.396Z,15.15
2022-10-05T02:22:15.640Z,15.14
2022-10-05T02:27:45.794Z,15.20
2022-10-05T02:33:10.333Z,15.25
2022-10-05T02:38:37.183Z,15.24
2022-10-05T02:44:17.485Z,15.24
2022-10-05T02:49:50.574Z,15.24
2022-10-05T02:55:21.150Z,15.31
2022-10-05T03:00:57.693Z,15.27
2022-10-05T03:06:30.817Z,15.20
2022-10-05T03:12:12.637Z,15.17
2022-10-05T03:17:49.411Z,15.15
2022-10-05T03:23:25.227Z,15.10
2022-10-05T03:28:55.131Z,15.10
2022-10-05T03:34:42.352Z,15.09
2022-10-05T03:40:20.508Z,15.05
2022-10-05T03:45:53.063Z,15.03
2022-10-05T03:51:31.108Z,15.05
2022-10-05T03:56:57.199Z,15.02
2022-10-05T04:02:31.137Z,14.96
2022-10-05T04:08:00.469Z,14.95
2022-10-05T04:13:31.605Z,14.96
2022-10-05T04:19:02.464Z,14.98
2022-10-05T04:24:40.705Z,14.95
2022-10-05T04:30:09.215Z,14.94
2022-10-05T04:35:40.195Z,14.93
2022-10-05T04:41:24.802Z,14.94
2022-10-05T04:47:08.179Z,14.95
2022-10-05T04:52:44.301Z,14.93
2022-10-05T04:58:24.020Z,14.97
2022-10-05T05:04:02.934Z,14.98
2022-10-05T05:09:53.709Z,14.97
2022-10-05T05:15:46.987Z,14.99
2022-10-05T05:22:01.246Z,14.93
2022-10-05T05:27:50.711Z,14.94
2022-10-05T05:33:36.003Z,14.94
2022-10-05T05:39:08.951Z,14.98
2022-10-05T05:44:38.778Z,14.97
2022-10-05T05:50:24.506Z,15.02
2022-10-05T05:55:50.523Z,15.03
2022-10-05T06:01:32.917Z,15.03
2022-10-05T06:07:01.141Z,15.07
2022-10-05T06:12:32.088Z,15.07
2022-10-05T06:17:56.220Z,15.06
2022-10-05T06:23:33.138Z,15.08
2022-10-05T06:29:04.034Z,15.06
2022-10-05T06:34:43.322Z,15.06
2022-10-05T06:40:09.376Z,15.10
2022-10-05T06:45:59.644Z,15.12
2022-10-05T06:51:54.249Z,15.14
2022-10-05T06:57:44.730Z,15.10
2022-10-05T07:03:18.001Z,15.14
2022-10-05T07:09:06.530Z,15.20
2022-10-05T07:15:18.414Z,15.20
2022-10-05T07:20:52.916Z,15.23
2022-10-05T07:26:22.871Z,15.30
2022-10-05T07:32:01.926Z,15.32
2022-10-05T07:37:57.699Z,15.42
2022-10-05T07:44:00.885Z,15.43
2022-10-05T07:49:41.868Z,15.50
2022-10-05T07:55:20.027Z,15.65
2022-10-05T08:00:41.437Z,15.71
2022-10-05T08:06:05.740Z,15.76
2022-10-05T08:12:11.456Z,15.76
2022-10-05T08:17:41.025Z,15.86
2022-10-05T08:23:23.699Z,15.88
2022-10-05T08:28:53.987Z,15.79
2022-10-05T08:34:23.584Z,15.90
2022-10-05T08:40:06.209Z,16.01
2022-10-05T08:46:06.137Z,15.93
2022-10-05T08:51:48.987Z,15.85
2022-10-05T08:57:27.634Z,15.74
2022-10-05T09:03:25.983Z,15.69
2022-10-05T09:08:59.490Z,15.64
2022-10-05T09:15:24.297Z,15.58
2022-10-05T09:20:53.430Z,15.51
2022-10-05T09:26:29.311Z,15.47
2022-10-05T09:32:16.469Z,15.45
2022-10-05T09:38:11.020Z,15.47
2022-10-05T09:44:16.658Z,15.51
2022-10-05T09:50:06.200Z,15.53
2022-10-05T09:56:01.197Z,15.54
2022-10-05T10:01:34.107Z,15.52
2022-10-05T10:07:41.881Z,15.57
2022-10-05T10:13:05.569Z,15.61
2022-10-05T10:18:47.239Z,15.61
2022-10-05T10:24:16.171Z,15.60
2022-10-05T10:29:43.022Z,15.59
2022-10-05T10:35:39.352Z,15.53
2022-10-05T10:41:21.601Z,15.57
2022-10-05T10:46:48.746Z,15.65
2022-10-05T10:52:47.075Z,15.57
2022-10-05T10:58:58.767Z,15.57
2022-10-05T11:04:58.751Z,15.50
2022-10-05T11:10:21.794Z,15.51
2022-10-05T11:21:36.794Z,15.44
2022-10-05T11:27:35.043Z,15.44
2022-10-05T11:33:15.849Z,15.51
2022-10-05T11:38:51.713Z,15.50
2022-10-05T11:44:31.065Z,15.53
2022-10-05T11:49:54.366Z,15.57
2022-10-05T11:55:24.105Z,15.61
2022-10-05T12:01:06.292Z,15.63
2022-10-05T12:06:42.438Z,15.73
2022-10-05T12:12:17.898Z,15.73
2022-10-05T12:25:48.236Z,15.65
2022-10-05T12:31:22.948Z,15.60
2022-10-05T12:37:08.268Z,15.60
2022-10-05T12:42:43.328Z,15.67
2022-10-05T12:48:36.649Z,15.73
2022-10-05T12:54:06.346Z,15.75
2022-10-05T12:59:52.584Z,15.75
2022-10-05T13:05:24.602Z,15.78
2022-10-05T13:11:05.464Z,15.79
2022-10-05T13:16:38.373Z,15.72
2022-10-05T13:22:23.620Z,15.76
2022-10-05T13:28:02.403Z,15.77
2022-10-05T13:34:05.027Z,15.82
2022-10-05T13:39:50.195Z,15.76
2022-10-05T13:45:23.243Z,15.79
2022-10-05T13:50:55.346Z,15.83
2022-10-05T13:56:22.481Z,15.94
2022-10-05T14:01:52.594Z,16.14
2022-10-05T14:07:31.955Z,16.11
2022-10-05T14:12:55.225Z,16.18
2022-10-05T14:18:24.282Z,16.18
2022-10-05T14:23:45.133Z,16.11
2022-10-05T14:29:14.438Z,15.99
2022-10-05T14:34:39.256Z,15.93
2022-10-05T14:40:35.117Z,15.77
2022-10-05T14:46:24.995Z,15.64
2022-10-05T14:51:53.745Z,15.60
2022-10-05T14:57:32.054Z,15.53
2022-10-05T15:03:06.351Z,15.49
2022-10-05T15:08:49.772Z,15.47
2022-10-05T15:14:28.887Z,15.45
2022-10-05T15:19:52.705Z,15.45
2022-10-05T15:25:27.087Z,15.40
2022-10-05T15:31:00.141Z,15.40
2022-10-05T15:36:43.277Z,15.44
2022-10-05T15:42:09.846Z,15.44
2022-10-05T15:47:47.369Z,15.43
2022-10-05T15:53:13.860Z,15.41
2022-10-05T15:58:55.456Z,15.44
2022-10-05T16:04:30.496Z,15.43
2022-10-05T16:10:17.393Z,15.43
2022-10-05T16:15:48.497Z,15.46
2022-10-05T16:21:29.318Z,15.43
2022-10-05T16:26:57.463Z,15.41
2022-10-05T16:32:30.462Z,15.44
2022-10-05T16:38:14.561Z,15.41
2022-10-05T16:44:32.842Z,15.40
2022-10-05T16:50:06.564Z,15.39
2022-10-05T16:55:51.497Z,15.41
2022-10-05T17:01:56.540Z,15.45
2022-10-05T17:07:34.976Z,15.43
2022-10-05T17:13:11.592Z,15.46
2022-10-05T17:18:54.751Z,15.52
2022-10-05T17:24:29.408Z,15.52
2022-10-05T17:29:54.281Z,15.61
2022-10-05T17:35:20.533Z,15.59
2022-10-05T17:41:15.857Z,15.62
2022-10-05T17:46:39.925Z,15.60
2022-10-05T17:52:27.995Z,15.65
2022-10-05T17:57:48.563Z,15.67
2022-10-05T18:03:36.282Z,15.71
2022-10-05T18:09:20.662Z,15.74
2022-10-05T18:14:55.932Z,15.72
2022-10-05T18:20:30.177Z,15.78
2022-10-05T18:26:07.615Z,15.78
2022-10-05T18:31:41.832Z,15.69
2022-10-05T18:37:21.485Z,15.55
2022-10-05T18:43:26.519Z,15.40
2022-10-05T18:49:07.086Z,15.22
2022-10-05T18:54:47.972Z,15.20
2022-10-05T19:00:22.958Z,15.28
2022-10-05T19:06:06.589Z,15.25
2022-10-05T19:11:41.078Z,14.97
2022-10-05T19:17:32.294Z,14.75
2022-10-05T19:23:12.045Z,14.58
2022-10-05T19:28:38.609Z,14.41
2022-10-05T19:34:32.891Z,14.38
2022-10-05T19:40:04.509Z,14.34
2022-10-05T19:45:31.893Z,14.34
2022-10-05T19:50:55.224Z,14.44
2022-10-05T19:56:21.449Z,14.43
2022-10-05T20:01:49.420Z,14.44
2022-10-05T20:07:21.635Z,14.48
2022-10-05T20:12:50.742Z,14.59
2022-10-05T20:18:55.006Z,14.58
2022-10-05T20:24:25.843Z,14.34
2022-10-05T20:29:46.826Z,14.26
2022-10-05T20:43:08.227Z,14.17
2022-10-05T20:48:29.186Z,14.12
2022-10-05T20:53:50.031Z,14.07
2022-10-05T20:59:10.441Z,14.03
2022-10-05T21:04:40.364Z,14.03
2022-10-05T21:10:03.284Z,14.01
2022-10-05T21:15:23.867Z,13.97
2022-10-05T21:20:46.596Z,13.92
2022-10-05T21:26:07.953Z,13.95
2022-10-05T21:31:29.166Z,14.01
2022-10-05T21:36:49.731Z,14.04
2022-10-05T21:42:10.407Z,14.02
2022-10-05T21:47:30.831Z,14.06
2022-10-05T21:52:52.229Z,13.91
2022-10-05T21:58:13.892Z,13.46
2022-10-05T22:03:35.363Z,13.08
2022-10-05T22:08:56.269Z,13.00
2022-10-05T22:14:17.108Z,12.71
2022-10-05T22:19:37.606Z,12.62
2022-10-05T22:24:58.076Z,12.58
2022-10-05T22:30:19.966Z,12.67
2022-10-05T22:35:41.999Z,12.78
2022-10-05T22:41:02.919Z,12.91
2022-10-05T22:46:23.977Z,13.04
2022-10-05T22:51:44.891Z,13.14
2022-10-05T22:57:05.699Z,13.25
2022-10-05T23:02:26.782Z,13.22
2022-10-05T23:07:47.857Z,13.17
2022-10-05T23:13:08.687Z,13.32
2022-10-05T23:18:29.610Z,13.41
2022-10-05T23:23:53.582Z,13.36
2022-10-05T23:29:14.339Z,13.31
2022-10-05T23:34:35.147Z,13.40
2022-10-05T23:39:55.473Z,13.43
2022-10-05T23:45:17.474Z,13.37
2022-10-05T23:50:37.914Z,13.34
2022-10-05T23:55:58.988Z,13.40
